Longmont, CO (80501)

12:12 PM MST die 16o January, anno 2017 (GMT -0700)
Historic East Side | | Change Station

Elev 5000 ft 40.17 °N, 105.10 °W | Updated 8 minutes ago

Aequaliter Nubila
Aequaliter Nubila
34.7 °F
Feels Like 35 °F
N
0.6
Ventus Variabilis Ventus from Auster

Hodie
High -- | Low -- °F
--% Chance of Precip.
Yesterday
High -- | Low -- °F
Precip. -- in
Pressio 30.11 in
Visibilitas 10.0 milia passuum
Clouds Aequaliter Nubila 4900 ft
Frigus Venti 35 °F
Frigus in quo Ros apparet 32 °F
Umor 92%
Rainfall Not available.
Snow Depth Not available.
7:20 AM 5:00 PM
Waning Gibbous, 79% visible
METAR KLMO 161853Z AUTO 22003KT 10SM OVC049 03/00 A3011 RMK AO2 P0011 T00330001
Pressio 30.11 in
Visibilitas 10.0 milia passuum
Clouds Aequaliter Nubila 4900 ft
Frigus Venti 35 °F
Frigus in quo Ros apparet 32 °F
Umor 92%
Rainfall Not available.
Snow Depth Not available.
7:20 AM 5:00 PM
Waning Gibbous, 79% visible
METAR KLMO 161853Z AUTO 22003KT 10SM OVC049 03/00 A3011 RMK AO2 P0011 T00330001

Get Your Daily Forecast Email!

Thanks for signing up!

Be on the lookout for a verification email in your inbox.

You'll start receiving the daily forecast at 8 AM.

×

10-Day Weather Forecast

Almanac

Astronomy

Jan. 16, 2017 Rise Set
Actual Time
Civil Twilight
Nautical Twilight
Astronomical Twilight
Moon
Length Of Visible Light
Length of Day
Tomorrow will be .
, % of the Moon is Illuminated

Today's Extremes

State Highs State Lows

Community

WunderPhotos

Upload Photos

1,962,540 photos uploaded!

WunderBlog® & News

Nearby

Air Quality

  Air Quality AQ Index Pollutant
Not available.

Snow Depth

Station Depth Elevation

Earthquake Activity

City Distance Mag. Time & Date
Minimum magnitude displayed is 2.5.

Coastal Water Temperatures

Locus Calor

Stations

Nearby Weather Stations

Station Location Temp Frigus Venti Frigus in quo Ros apparet Umor Ventus Precip. Elev Renovata Type
                   

Watches & Warnings

There are currently no watches in effect.